createdAt,value
2023-01-13T00:01:02.764Z,6.13
2023-01-13T00:03:29.368Z,5.05
2023-01-13T00:05:56.019Z,6.82
2023-01-13T00:08:22.608Z,5.88
2023-01-13T00:10:49.314Z,4.85
2023-01-13T00:13:15.898Z,5.05
2023-01-13T00:15:42.579Z,4.50
2023-01-13T00:18:09.332Z,6.53
2023-01-13T00:20:36.029Z,4.60
2023-01-13T00:23:04.429Z,4.32
2023-01-13T00:25:31.056Z,5.65
2023-01-13T00:27:57.706Z,4.35
2023-01-13T00:30:24.352Z,4.13
2023-01-13T00:32:51.060Z,4.75
2023-01-13T00:35:17.674Z,3.67
2023-01-13T00:37:44.258Z,3.58
2023-01-13T00:40:10.935Z,4.95
2023-01-13T00:42:56.426Z,4.97
2023-01-13T00:45:23.048Z,4.75
2023-01-13T00:47:49.628Z,3.13
2023-01-13T00:50:16.260Z,3.08
2023-01-13T00:52:43.040Z,3.40
2023-01-13T00:55:09.627Z,1.88
2023-01-13T00:57:36.303Z,2.28
2023-01-13T01:00:02.889Z,3.67
2023-01-13T01:02:29.518Z,4.68
2023-01-13T01:04:56.205Z,3.85
2023-01-13T01:07:22.899Z,2.35
2023-01-13T01:09:49.503Z,3.70
2023-01-13T01:12:16.096Z,4.72
2023-01-13T01:14:42.715Z,3.22
2023-01-13T01:17:09.300Z,2.72
2023-01-13T01:19:38.723Z,2.58
2023-01-13T01:22:05.281Z,2.75
2023-01-13T01:24:31.908Z,2.78
2023-01-13T01:26:58.547Z,3.25
2023-01-13T01:29:25.203Z,3.72
2023-01-13T01:31:51.820Z,2.78
2023-01-13T01:34:18.458Z,3.72
2023-01-13T01:36:45.059Z,4.22
2023-01-13T01:39:11.709Z,2.83
2023-01-13T01:41:38.350Z,3.90
2023-01-13T01:44:08.010Z,2.97
2023-01-13T01:46:34.703Z,2.83
2023-01-13T01:49:01.354Z,3.40
2023-01-13T01:51:27.996Z,3.42
2023-01-13T01:53:54.595Z,4.25
2023-01-13T01:56:21.179Z,4.72
2023-01-13T01:58:47.874Z,4.13
2023-01-13T02:01:14.590Z,4.60
2023-01-13T02:03:41.307Z,4.35
2023-01-13T02:06:08.020Z,3.78
2023-01-13T02:08:34.640Z,5.32
2023-01-13T02:11:01.225Z,5.50
2023-01-13T02:13:27.861Z,4.70
2023-01-13T02:15:54.441Z,4.53
2023-01-13T02:18:21.089Z,4.75
2023-01-13T02:20:47.672Z,2.80
2023-01-13T02:23:34.226Z,3.20
2023-01-13T02:26:00.806Z,3.13
2023-01-13T02:28:27.466Z,5.57
2023-01-13T02:31:12.924Z,3.70
2023-01-13T02:33:39.631Z,4.68
2023-01-13T02:36:06.222Z,4.32
2023-01-13T02:38:32.848Z,3.63
2023-01-13T02:41:19.445Z,4.32
2023-01-13T02:44:04.687Z,3.63
2023-01-13T02:46:31.293Z,4.28
2023-01-13T02:48:58.050Z,3.05
2023-01-13T02:51:24.710Z,3.75
2023-01-13T02:53:51.316Z,4.55
2023-01-13T02:56:17.915Z,3.55
2023-01-13T02:58:44.582Z,3.22
2023-01-13T03:01:11.290Z,4.90
2023-01-13T03:03:37.988Z,3.28
2023-01-13T03:06:04.608Z,4.60
2023-01-13T03:08:31.244Z,4.75
2023-01-13T03:10:57.887Z,3.58
2023-01-13T03:13:24.471Z,3.75
2023-01-13T03:15:51.059Z,2.92
2023-01-13T03:18:17.690Z,4.78
2023-01-13T03:20:44.305Z,5.30
2023-01-13T03:23:10.895Z,4.28
2023-01-13T03:25:37.460Z,4.97
2023-01-13T03:28:04.132Z,4.95
2023-01-13T03:30:32.553Z,6.18
2023-01-13T03:32:59.186Z,4.30
2023-01-13T03:35:25.805Z,5.35
2023-01-13T03:37:52.383Z,5.07
2023-01-13T03:40:19.004Z,4.07
2023-01-13T03:43:05.570Z,5.10
2023-01-13T03:45:32.202Z,4.25
2023-01-13T03:47:58.802Z,4.32
2023-01-13T03:50:25.407Z,3.80
2023-01-13T03:52:52.030Z,6.25
2023-01-13T03:55:18.745Z,4.15
2023-01-13T03:57:45.477Z,4.68
2023-01-13T04:00:12.165Z,5.40
2023-01-13T04:02:38.723Z,5.65
2023-01-13T04:05:05.316Z,4.63
2023-01-13T04:07:31.922Z,3.40
2023-01-13T04:10:00.201Z,3.75
2023-01-13T04:12:27.000Z,4.35
2023-01-13T04:14:53.654Z,3.90
2023-01-13T04:17:20.252Z,4.95
2023-01-13T04:19:46.882Z,5.82
2023-01-13T04:22:13.499Z,4.97
2023-01-13T04:24:40.174Z,5.65
2023-01-13T04:27:06.796Z,5.40
2023-01-13T04:29:33.438Z,4.38
2023-01-13T04:32:00.017Z,3.20
2023-01-13T04:34:28.390Z,4.82
2023-01-13T04:36:55.194Z,6.10
2023-01-13T04:39:21.845Z,5.68
2023-01-13T04:41:57.796Z,5.05
2023-01-13T04:44:24.403Z,5.38
2023-01-13T04:46:51.036Z,5.25
2023-01-13T04:49:17.698Z,5.88
2023-01-13T04:51:44.298Z,5.65
2023-01-13T04:54:11.277Z,6.15
2023-01-13T04:56:37.946Z,5.20
2023-01-13T04:59:04.533Z,5.18
2023-01-13T05:01:31.193Z,5.05
2023-01-13T05:03:57.882Z,3.70
2023-01-13T05:06:24.460Z,5.40
2023-01-13T05:08:51.164Z,5.05
2023-01-13T05:11:36.628Z,4.78
2023-01-13T05:14:21.704Z,4.75
2023-01-13T05:17:00.301Z,3.97
2023-01-13T05:19:26.969Z,4.93
2023-01-13T05:22:12.292Z,4.13
2023-01-13T05:24:57.566Z,3.83
2023-01-13T05:27:24.167Z,3.80
2023-01-13T05:29:50.785Z,5.22
2023-01-13T05:32:17.422Z,3.55
2023-01-13T05:34:44.079Z,4.72
2023-01-13T05:37:12.082Z,3.28
2023-01-13T05:39:57.607Z,3.70
2023-01-13T05:42:43.045Z,4.38
2023-01-13T05:45:09.637Z,2.88
2023-01-13T05:47:36.222Z,4.32
2023-01-13T05:50:02.851Z,6.72
2023-01-13T05:52:29.442Z,3.03
2023-01-13T05:54:56.065Z,3.60
2023-01-13T05:57:22.743Z,4.13
2023-01-13T05:59:49.386Z,5.13
2023-01-13T06:02:15.995Z,3.63
2023-01-13T06:04:42.758Z,3.67
2023-01-13T06:07:09.457Z,3.58
2023-01-13T06:09:36.070Z,4.50
2023-01-13T06:12:02.679Z,4.03
2023-01-13T06:14:41.580Z,3.33
2023-01-13T06:17:08.227Z,3.55
2023-01-13T06:19:34.910Z,3.10
2023-01-13T06:22:02.423Z,4.70
2023-01-13T06:24:29.049Z,4.53
2023-01-13T06:26:55.645Z,4.40
2023-01-13T06:29:22.324Z,3.67
2023-01-13T06:31:49.041Z,4.20
2023-01-13T06:34:15.765Z,4.28
2023-01-13T06:36:42.505Z,4.28
2023-01-13T06:39:09.119Z,4.85
2023-01-13T06:41:54.727Z,4.90
2023-01-13T06:44:21.350Z,5.15
2023-01-13T06:46:47.992Z,4.47
2023-01-13T06:49:14.739Z,5.40
2023-01-13T06:51:41.429Z,4.30
2023-01-13T06:54:08.834Z,4.18
2023-01-13T06:56:35.536Z,3.63
2023-01-13T06:59:02.140Z,4.60
2023-01-13T07:01:28.915Z,3.85
2023-01-13T07:03:55.673Z,4.00
2023-01-13T07:06:22.293Z,5.28
2023-01-13T07:08:48.911Z,6.15
2023-01-13T07:11:15.663Z,4.28
2023-01-13T07:14:01.105Z,6.10
2023-01-13T07:16:28.265Z,4.82
2023-01-13T07:18:54.979Z,5.00
2023-01-13T07:21:22.117Z,3.10
2023-01-13T07:23:48.787Z,3.92
2023-01-13T07:26:15.480Z,6.38
2023-01-13T07:28:42.059Z,3.67
2023-01-13T07:31:08.766Z,5.57
2023-01-13T07:33:35.414Z,4.20
2023-01-13T07:36:02.165Z,5.30
2023-01-13T07:38:28.814Z,4.60
2023-01-13T07:40:55.449Z,4.25
2023-01-13T07:43:34.339Z,3.55
2023-01-13T07:46:01.039Z,5.72
2023-01-13T07:48:27.797Z,4.53
2023-01-13T07:50:54.461Z,4.53
2023-01-13T07:53:21.172Z,3.90
2023-01-13T07:55:47.772Z,4.10
2023-01-13T07:58:14.417Z,4.90
2023-01-13T08:00:41.053Z,5.38
2023-01-13T08:03:07.752Z,5.85
2023-01-13T08:05:34.471Z,5.28
2023-01-13T08:08:01.172Z,4.72
2023-01-13T08:10:27.843Z,6.45
2023-01-13T08:13:13.222Z,4.80
2023-01-13T08:15:39.835Z,4.68
2023-01-13T08:18:06.457Z,3.78
2023-01-13T08:20:33.163Z,4.15
2023-01-13T08:22:59.798Z,5.93
2023-01-13T08:25:26.599Z,4.93
2023-01-13T08:27:53.323Z,5.20
2023-01-13T08:30:19.935Z,6.13
2023-01-13T08:32:46.519Z,6.60
2023-01-13T08:35:13.152Z,4.32
2023-01-13T08:37:39.893Z,5.57
2023-01-13T08:40:06.532Z,5.20
2023-01-13T08:42:33.151Z,4.30
2023-01-13T08:44:59.933Z,6.47
2023-01-13T08:47:26.942Z,4.60
2023-01-13T08:49:53.626Z,4.22
2023-01-13T08:52:20.553Z,4.75
2023-01-13T08:54:47.237Z,5.22
2023-01-13T08:57:15.297Z,3.72
2023-01-13T08:59:43.454Z,5.20
2023-01-13T09:02:11.496Z,3.70
2023-01-13T09:04:38.272Z,4.00
2023-01-13T09:07:05.066Z,4.50
2023-01-13T09:09:31.934Z,4.22
2023-01-13T09:12:17.437Z,4.30
2023-01-13T09:14:44.015Z,4.53
2023-01-13T09:17:10.647Z,5.38
2023-01-13T09:19:37.406Z,4.47
2023-01-13T09:22:04.131Z,4.15
2023-01-13T09:24:30.770Z,5.68
2023-01-13T09:26:57.440Z,5.13
2023-01-13T09:29:24.064Z,4.70
2023-01-13T09:31:50.690Z,3.97
2023-01-13T09:34:36.053Z,4.03
2023-01-13T09:37:02.717Z,3.13
2023-01-13T09:39:29.403Z,5.05
2023-01-13T09:42:14.786Z,4.47
2023-01-13T09:44:41.442Z,4.20
2023-01-13T09:47:08.092Z,3.47
2023-01-13T09:49:34.711Z,5.30
2023-01-13T09:52:01.349Z,4.78
2023-01-13T09:54:27.992Z,3.67
2023-01-13T09:56:54.646Z,4.80
2023-01-13T09:59:21.362Z,3.45
2023-01-13T10:01:47.944Z,5.53
2023-01-13T10:04:14.916Z,2.97
2023-01-13T10:06:42.726Z,3.53
2023-01-13T10:09:09.411Z,4.07
2023-01-13T10:12:08.485Z,3.15
2023-01-13T10:14:35.163Z,3.08
2023-01-13T10:17:01.834Z,3.38
2023-01-13T10:19:29.345Z,5.10
2023-01-13T10:21:56.031Z,2.50
2023-01-13T10:24:22.788Z,3.47
2023-01-13T10:26:49.417Z,2.97
2023-01-13T10:29:16.066Z,3.58
2023-01-13T10:31:42.683Z,3.10
2023-01-13T10:34:09.344Z,3.90
2023-01-13T10:36:35.969Z,2.78
2023-01-13T10:39:02.615Z,3.10
2023-01-13T10:41:29.336Z,3.80
2023-01-13T10:43:55.973Z,4.53
2023-01-13T10:46:22.714Z,2.88
2023-01-13T10:48:49.378Z,3.60
2023-01-13T10:51:16.009Z,4.10
2023-01-13T10:53:42.634Z,3.60
2023-01-13T10:56:09.274Z,4.55
2023-01-13T10:58:35.916Z,3.33
2023-01-13T11:01:02.842Z,2.25
2023-01-13T11:03:29.531Z,3.08
2023-01-13T11:05:56.160Z,2.33
2023-01-13T11:08:22.809Z,4.68
2023-01-13T11:10:50.142Z,3.33
2023-01-13T11:13:16.792Z,2.72
2023-01-13T11:15:43.461Z,2.17
2023-01-13T11:18:10.157Z,3.08
2023-01-13T11:20:37.074Z,4.70
2023-01-13T11:23:03.786Z,2.83
2023-01-13T11:25:33.841Z,2.75
2023-01-13T11:28:00.831Z,2.28
2023-01-13T11:30:27.515Z,3.20
2023-01-13T11:32:54.146Z,3.75
2023-01-13T11:35:20.792Z,3.40
2023-01-13T11:37:47.551Z,2.80
2023-01-13T11:40:14.307Z,3.30
2023-01-13T11:42:40.997Z,2.42
2023-01-13T11:45:07.666Z,4.72
2023-01-13T11:47:35.012Z,2.65
2023-01-13T11:50:01.763Z,2.88
2023-01-13T11:52:28.499Z,3.80
2023-01-13T11:54:55.126Z,5.18
2023-01-13T11:57:21.772Z,3.58
2023-01-13T11:59:48.398Z,3.15
2023-01-13T12:02:15.319Z,3.85
2023-01-13T12:04:42.216Z,2.92
2023-01-13T12:07:13.094Z,3.45
2023-01-13T12:09:39.721Z,4.90
2023-01-13T12:12:27.651Z,4.65
2023-01-13T12:14:54.349Z,4.10
2023-01-13T12:17:21.280Z,3.05
2023-01-13T12:19:47.934Z,5.20
2023-01-13T12:22:14.584Z,3.15
2023-01-13T12:24:41.258Z,3.72
2023-01-13T12:27:07.945Z,2.95
2023-01-13T12:29:34.602Z,3.40
2023-01-13T12:32:01.401Z,3.83
2023-01-13T12:34:28.074Z,3.33
2023-01-13T12:36:54.708Z,5.10
2023-01-13T12:39:21.329Z,3.53
2023-01-13T12:42:06.955Z,5.30
2023-01-13T12:44:33.660Z,3.20
2023-01-13T12:47:00.370Z,2.83
2023-01-13T12:49:27.039Z,4.13
2023-01-13T12:51:53.686Z,4.20
2023-01-13T12:54:20.294Z,5.30
2023-01-13T12:56:47.078Z,3.03
2023-01-13T12:59:13.700Z,3.35
2023-01-13T13:01:40.511Z,2.65
2023-01-13T13:04:07.286Z,1.85
2023-01-13T13:06:33.893Z,2.53
2023-01-13T13:09:03.303Z,3.30
2023-01-13T13:11:49.323Z,3.40
2023-01-13T13:14:15.938Z,1.83
2023-01-13T13:16:42.611Z,2.70
2023-01-13T13:19:09.301Z,3.75
2023-01-13T13:21:35.904Z,3.42
2023-01-13T13:24:03.183Z,2.80
2023-01-13T13:26:30.970Z,2.95
2023-01-13T13:28:57.591Z,2.55
2023-01-13T13:31:24.333Z,3.38
2023-01-13T13:33:50.977Z,3.72
2023-01-13T13:36:17.642Z,3.53
2023-01-13T13:39:03.102Z,2.55
2023-01-13T13:41:48.378Z,2.50
2023-01-13T13:44:33.834Z,2.55
2023-01-13T13:47:00.418Z,2.75
2023-01-13T13:49:27.076Z,2.28
2023-01-13T13:51:53.756Z,2.50
2023-01-13T13:54:20.519Z,2.95
2023-01-13T13:56:47.156Z,3.30
2023-01-13T13:59:13.862Z,3.13
2023-01-13T14:01:40.719Z,2.72
2023-01-13T14:04:07.441Z,3.45
2023-01-13T14:06:34.108Z,2.80
2023-01-13T14:09:00.702Z,3.22
2023-01-13T14:11:27.606Z,2.85
2023-01-13T14:13:54.275Z,3.03
2023-01-13T14:16:20.911Z,3.63
2023-01-13T14:18:47.693Z,3.33
2023-01-13T14:21:14.313Z,2.97
2023-01-13T14:23:40.932Z,3.17
2023-01-13T14:26:07.788Z,2.70
2023-01-13T14:28:34.391Z,3.08
2023-01-13T14:31:01.418Z,3.15
2023-01-13T14:33:28.102Z,2.88
2023-01-13T14:35:54.812Z,3.33
2023-01-13T14:38:21.926Z,1.95
2023-01-13T14:40:49.563Z,3.15
2023-01-13T14:43:16.486Z,3.40
2023-01-13T14:45:43.086Z,2.80
2023-01-13T14:48:09.674Z,2.80
2023-01-13T14:50:36.323Z,2.70
2023-01-13T14:53:04.990Z,3.08
2023-01-13T14:55:31.715Z,2.80
2023-01-13T14:57:58.361Z,4.32
2023-01-13T15:00:25.058Z,1.83
2023-01-13T15:02:53.385Z,3.60
2023-01-13T15:05:20.098Z,2.33
2023-01-13T15:07:46.721Z,2.88
2023-01-13T15:10:13.345Z,2.55
2023-01-13T15:12:39.986Z,2.70
2023-01-13T15:15:06.630Z,1.75
2023-01-13T15:17:34.600Z,1.48
2023-01-13T15:20:01.550Z,2.58
2023-01-13T15:22:29.612Z,2.13
2023-01-13T15:24:57.482Z,2.95
2023-01-13T15:27:24.068Z,2.85
2023-01-13T15:29:50.665Z,3.22
2023-01-13T15:32:17.292Z,4.05
2023-01-13T15:34:44.866Z,4.50
2023-01-13T15:37:11.473Z,4.18
2023-01-13T15:39:38.364Z,3.70
2023-01-13T15:42:23.770Z,4.15
2023-01-13T15:45:08.999Z,3.08
2023-01-13T15:47:35.647Z,4.32
2023-01-13T15:50:02.359Z,2.25
2023-01-13T15:52:29.127Z,2.83
2023-01-13T15:54:55.755Z,3.60
2023-01-13T15:57:22.592Z,2.70
2023-01-13T15:59:49.237Z,2.58
2023-01-13T16:02:18.362Z,3.95
2023-01-13T16:04:45.058Z,4.47
2023-01-13T16:07:11.695Z,3.65
2023-01-13T16:09:38.290Z,2.78
2023-01-13T16:12:04.891Z,3.42
2023-01-13T16:14:31.509Z,2.25
2023-01-13T16:16:58.087Z,3.17
2023-01-13T16:19:24.707Z,3.90
2023-01-13T16:21:51.362Z,3.72
2023-01-13T16:24:18.026Z,3.97
2023-01-13T16:26:44.663Z,3.83
2023-01-13T16:29:12.711Z,3.10
2023-01-13T16:31:39.400Z,4.28
2023-01-13T16:34:06.338Z,2.92
2023-01-13T16:36:32.953Z,4.30
2023-01-13T16:38:59.764Z,3.80
2023-01-13T16:41:26.535Z,4.18
2023-01-13T16:43:53.171Z,4.28
2023-01-13T16:46:19.839Z,3.78
2023-01-13T16:48:46.812Z,5.20
2023-01-13T16:51:13.513Z,5.28
2023-01-13T16:53:40.224Z,3.85
2023-01-13T16:56:06.934Z,4.95
2023-01-13T16:58:33.576Z,4.38
2023-01-13T17:01:00.235Z,4.57
2023-01-13T17:03:26.954Z,6.03
2023-01-13T17:05:53.658Z,5.30
2023-01-13T17:08:20.334Z,4.18
2023-01-13T17:10:46.946Z,5.22
2023-01-13T17:13:16.817Z,4.70
2023-01-13T17:15:43.978Z,4.75
2023-01-13T17:18:11.617Z,5.20
2023-01-13T17:20:38.245Z,4.63
2023-01-13T17:23:04.909Z,5.82
2023-01-13T17:25:31.494Z,4.70
2023-01-13T17:27:58.153Z,4.68
2023-01-13T17:30:24.845Z,6.18
2023-01-13T17:32:51.477Z,5.53
2023-01-13T17:35:24.545Z,5.82
2023-01-13T17:37:51.293Z,5.20
2023-01-13T17:40:18.130Z,4.88
2023-01-13T17:42:44.791Z,4.65
2023-01-13T17:45:12.396Z,5.55
2023-01-13T17:47:39.053Z,5.03
2023-01-13T17:50:05.850Z,6.32
2023-01-13T17:52:32.533Z,4.97
2023-01-13T17:54:59.102Z,7.28
2023-01-13T17:57:25.809Z,6.82
2023-01-13T17:59:52.473Z,18.73
2023-01-13T18:02:19.125Z,19.77
2023-01-13T18:04:45.878Z,9.15
2023-01-13T18:07:12.541Z,8.50
2023-01-13T18:09:39.170Z,5.65
2023-01-13T18:12:05.870Z,6.78
2023-01-13T18:14:32.456Z,7.32
2023-01-13T18:16:59.385Z,6.15
2023-01-13T18:19:44.813Z,4.60
2023-01-13T18:22:30.017Z,3.67
2023-01-13T18:25:15.643Z,5.90
2023-01-13T18:27:42.298Z,4.97
2023-01-13T18:30:09.049Z,7.25
2023-01-13T18:32:35.869Z,7.28
2023-01-13T18:35:06.696Z,7.05
2023-01-13T18:37:35.949Z,4.95
2023-01-13T18:40:02.789Z,5.63
2023-01-13T18:42:48.198Z,5.90
2023-01-13T18:45:14.789Z,5.10
2023-01-13T18:47:42.392Z,7.55
2023-01-13T18:50:09.304Z,5.00
2023-01-13T18:52:35.942Z,6.20
2023-01-13T18:55:02.615Z,4.22
2023-01-13T18:57:29.461Z,5.82
2023-01-13T18:59:57.671Z,5.90
2023-01-13T19:02:26.498Z,4.90
2023-01-13T19:04:53.894Z,5.97
2023-01-13T19:07:26.911Z,5.38
2023-01-13T19:09:55.500Z,6.30
2023-01-13T19:12:30.907Z,4.63
2023-01-13T19:14:57.684Z,5.15
2023-01-13T19:17:24.374Z,4.60
2023-01-13T19:19:51.175Z,6.60
2023-01-13T19:22:17.903Z,6.00
2023-01-13T19:24:44.755Z,6.57
2023-01-13T19:27:12.109Z,5.93
2023-01-13T19:29:43.293Z,5.80
2023-01-13T19:32:18.908Z,6.05
2023-01-13T19:34:46.836Z,5.38
2023-01-13T19:37:13.495Z,4.60
2023-01-13T19:39:40.126Z,4.85
2023-01-13T19:42:25.506Z,5.88
2023-01-13T19:45:10.665Z,6.45
2023-01-13T19:47:38.758Z,3.85
2023-01-13T19:50:06.627Z,4.95
2023-01-13T19:52:33.390Z,4.22
2023-01-13T19:55:00.097Z,5.00
2023-01-13T19:57:27.093Z,5.65
2023-01-13T19:59:53.896Z,3.75
2023-01-13T20:02:28.137Z,3.97
2023-01-13T20:04:56.018Z,4.80
2023-01-13T20:07:23.884Z,5.80
2023-01-13T20:09:50.870Z,6.18
2023-01-13T20:12:17.582Z,6.05
2023-01-13T20:14:44.320Z,6.78
2023-01-13T20:17:11.028Z,8.43
2023-01-13T20:19:37.743Z,6.47
2023-01-13T20:22:04.427Z,6.97
2023-01-13T20:24:31.327Z,6.28
2023-01-13T20:26:58.175Z,6.38
2023-01-13T20:29:24.824Z,6.07
2023-01-13T20:31:51.529Z,4.75
2023-01-13T20:34:21.573Z,5.25
2023-01-13T20:36:48.581Z,4.82
2023-01-13T20:39:15.291Z,5.40
2023-01-13T20:42:00.961Z,6.18
2023-01-13T20:44:30.549Z,6.65
2023-01-13T20:46:58.106Z,6.00
2023-01-13T20:49:24.947Z,5.32
2023-01-13T20:51:51.588Z,4.18
2023-01-13T20:54:18.426Z,4.72
2023-01-13T20:56:45.085Z,3.92
2023-01-13T20:59:11.774Z,6.47
2023-01-13T21:01:38.516Z,5.57
2023-01-13T21:04:05.993Z,7.90
2023-01-13T21:06:33.026Z,7.60
2023-01-13T21:08:59.812Z,5.43
2023-01-13T21:11:45.316Z,7.10
2023-01-13T21:14:30.480Z,5.43
2023-01-13T21:16:57.160Z,3.97
2023-01-13T21:19:23.800Z,4.90
2023-01-13T21:21:50.470Z,7.65
2023-01-13T21:24:17.244Z,10.25
2023-01-13T21:26:43.992Z,13.85
2023-01-13T21:29:10.700Z,16.58
2023-01-13T21:31:37.473Z,13.07
2023-01-13T21:34:05.277Z,8.48
2023-01-13T21:36:32.023Z,7.53
2023-01-13T21:38:58.706Z,7.75
2023-01-13T21:41:44.044Z,5.47
2023-01-13T21:44:29.519Z,7.95
2023-01-13T21:47:14.996Z,7.25
2023-01-13T21:49:44.507Z,7.28
2023-01-13T21:52:11.357Z,4.60
2023-01-13T21:54:58.028Z,4.95
2023-01-13T21:57:26.199Z,7.85
2023-01-13T21:59:53.895Z,8.85
2023-01-13T22:02:32.322Z,6.90
2023-01-13T22:04:59.151Z,5.38
2023-01-13T22:07:26.712Z,6.82
2023-01-13T22:09:53.367Z,5.47
2023-01-13T22:12:23.750Z,6.05
2023-01-13T22:14:50.664Z,6.68
2023-01-13T22:17:18.000Z,5.70
2023-01-13T22:19:45.107Z,5.60
2023-01-13T22:22:14.802Z,5.35
2023-01-13T22:24:43.832Z,6.32
2023-01-13T22:27:10.742Z,7.72
2023-01-13T22:29:37.809Z,5.70
2023-01-13T22:32:04.570Z,6.60
2023-01-13T22:34:31.226Z,7.30
2023-01-13T22:36:58.075Z,5.50
2023-01-13T22:39:24.671Z,5.93
2023-01-13T22:41:51.337Z,7.15
2023-01-13T22:44:18.053Z,5.00
2023-01-13T22:46:44.819Z,4.25
2023-01-13T22:49:11.427Z,8.95
2023-01-13T22:51:38.077Z,5.82
2023-01-13T22:54:04.702Z,6.93
2023-01-13T22:56:31.369Z,5.47
2023-01-13T22:58:58.055Z,5.28
2023-01-13T23:01:24.747Z,5.97
2023-01-13T23:03:51.546Z,6.07
2023-01-13T23:06:18.446Z,5.10
2023-01-13T23:08:45.318Z,5.03
2023-01-13T23:11:12.007Z,5.80
2023-01-13T23:13:39.428Z,7.55
2023-01-13T23:16:06.059Z,5.93
2023-01-13T23:18:32.747Z,6.35
2023-01-13T23:20:59.428Z,6.40
2023-01-13T23:23:26.078Z,5.93
2023-01-13T23:25:56.557Z,6.05
2023-01-13T23:28:23.282Z,4.93
2023-01-13T23:30:50.075Z,4.82
2023-01-13T23:33:16.820Z,6.03
2023-01-13T23:35:43.476Z,5.22
2023-01-13T23:38:10.224Z,6.72
2023-01-13T23:40:38.599Z,5.45
2023-01-13T23:43:05.511Z,5.32
2023-01-13T23:45:32.201Z,6.28
2023-01-13T23:47:59.063Z,6.30
2023-01-13T23:50:25.853Z,6.30
2023-01-13T23:52:52.684Z,3.88
2023-01-13T23:55:19.369Z,6.78
2023-01-13T23:57:46.092Z,4.47
